Time;durP1;ratioP1;P1;durP2;ratioP2;P2;SDS_P1;SDS_P2;PMS_P1;PMS_P2;Temp;Humidity;BMP_temperature;BMP_pressure;BME280_temperature;BME280_humidity;BME280_pressure;Samples;Min_cycle;Max_cycle;Signal;HPM_P1;HPM_P2
2021/08/11 00:00:19;;;;;;;3.00;2.28;;;;;;;;;;5015482;28;20437;-48
2021/08/11 00:02:45;;;;;;;2.38;1.90;;;;;;;;;;5015357;28;20267;-49
2021/08/11 00:05:11;;;;;;;3.38;2.30;;;;;;;;;;5021036;28;20586;-49
2021/08/11 00:07:38;;;;;;;3.65;2.72;;;;;;;;;;5018717;28;20184;-49
2021/08/11 00:10:04;;;;;;;3.47;2.60;;;;;;;;;;5034323;28;20199;-49
2021/08/11 00:12:30;;;;;;;3.25;2.13;;;;;;;;;;5024143;28;20176;-48
2021/08/11 00:14:56;;;;;;;4.25;2.60;;;;;;;;;;5021115;28;20207;-49
2021/08/11 00:17:22;;;;;;;3.92;2.50;;;;;;;;;;5020508;28;20180;-49
2021/08/11 00:19:49;;;;;;;4.03;2.80;;;;;;;;;;5015381;28;20176;-49
2021/08/11 00:22:15;;;;;;;2.38;1.90;;;;;;;;;;5017444;28;20188;-49
2021/08/11 00:24:41;;;;;;;3.85;2.75;;;;;;;;;;5027165;28;20200;-49
2021/08/11 00:27:07;;;;;;;3.88;2.38;;;;;;;;;;5019179;28;20188;-49
2021/08/11 00:29:33;;;;;;;4.22;2.40;;;;;;;;;;5034690;28;20226;-48
2021/08/11 00:31:59;;;;;;;2.53;2.28;;;;;;;;;;5034879;28;20566;-49
2021/08/11 00:34:27;;;;;;;3.05;2.25;;;;;;;;;;5025021;28;20176;-48
2021/08/11 00:36:53;;;;;;;2.72;2.33;;;;;;;;;;5015227;28;20177;-49
2021/08/11 00:39:19;;;;;;;2.75;2.47;;;;;;;;;;5032429;28;20186;-49
2021/08/11 00:41:45;;;;;;;4.32;2.63;;;;;;;;;;5030195;28;20185;-48
2021/08/11 00:44:12;;;;;;;3.53;2.47;;;;;;;;;;5016095;28;20176;-48
2021/08/11 00:46:45;;;;;;;3.50;2.28;;;;;;;;;;5029798;28;20203;-49
2021/08/11 00:49:12;;;;;;;3.03;2.50;;;;;;;;;;5014336;28;20284;-49
2021/08/11 00:51:39;;;;;;;2.35;2.00;;;;;;;;;;5014608;28;20188;-49
2021/08/11 00:54:05;;;;;;;4.90;2.63;;;;;;;;;;5030344;28;20479;-48
2021/08/11 00:56:32;;;;;;;3.47;2.63;;;;;;;;;;5031857;28;20160;-49
2021/08/11 00:58:59;;;;;;;3.00;2.40;;;;;;;;;;5014285;28;20226;-49
2021/08/11 01:01:25;;;;;;;4.15;2.30;;;;;;;;;;5025239;28;20312;-49
2021/08/11 01:03:54;;;;;;;3.00;2.58;;;;;;;;;;5034728;28;20778;-49
2021/08/11 01:06:20;;;;;;;2.70;2.10;;;;;;;;;;5023989;28;20181;-49
2021/08/11 01:08:46;;;;;;;3.58;2.80;;;;;;;;;;5014557;28;20204;-48
2021/08/11 01:11:12;;;;;;;2.63;2.10;;;;;;;;;;5014706;28;20184;-49
2021/08/11 01:13:38;;;;;;;2.90;2.10;;;;;;;;;;5015427;28;20196;-48
2021/08/11 01:16:05;;;;;;;2.22;2.03;;;;;;;;;;5014701;28;20599;-49
2021/08/11 01:18:31;;;;;;;2.60;2.17;;;;;;;;;;5013901;28;20184;-48
2021/08/11 01:21:03;;;;;;;2.70;2.50;;;;;;;;;;5023664;28;20180;-49
2021/08/11 01:23:36;;;;;;;2.30;2.08;;;;;;;;;;5028381;28;20176;-49
2021/08/11 01:26:06;;;;;;;2.42;2.20;;;;;;;;;;5018585;28;20247;-49
2021/08/11 01:28:32;;;;;;;2.25;2.05;;;;;;;;;;5017664;28;20330;-49
2021/08/11 01:31:10;;;;;;;2.92;2.25;;;;;;;;;;5018582;28;20251;-48
2021/08/11 01:33:45;;;;;;;3.80;2.30;;;;;;;;;;5017818;28;20222;-48
2021/08/11 01:36:17;;;;;;;2.30;2.10;;;;;;;;;;5020073;28;20543;-48
2021/08/11 01:38:47;;;;;;;4.22;2.30;;;;;;;;;;5030498;28;20187;-48
2021/08/11 01:41:14;;;;;;;3.92;2.53;;;;;;;;;;5037991;28;20194;-48
2021/08/11 01:43:43;;;;;;;4.25;2.38;;;;;;;;;;5020536;28;20189;-48
2021/08/11 01:46:10;;;;;;;2.45;2.25;;;;;;;;;;5018096;28;20549;-49
2021/08/11 01:48:38;;;;;;;2.30;2.00;;;;;;;;;;5017326;28;20201;-49
2021/08/11 01:51:05;;;;;;;2.60;2.30;;;;;;;;;;5017726;28;20172;-48
2021/08/11 01:53:32;;;;;;;2.55;2.17;;;;;;;;;;5029069;28;20253;-48
2021/08/11 01:56:00;;;;;;;2.45;2.17;;;;;;;;;;5037280;28;20203;-48
2021/08/11 01:58:27;;;;;;;4.72;2.20;;;;;;;;;;5016317;28;20188;-48
2021/08/11 02:00:55;;;;;;;3.55;2.25;;;;;;;;;;5018028;28;20530;-48
2021/08/11 02:03:22;;;;;;;2.40;2.10;;;;;;;;;;5017439;28;20219;-48
2021/08/11 02:05:50;;;;;;;3.15;2.60;;;;;;;;;;5017440;28;20204;-48
2021/08/11 02:08:16;;;;;;;2.28;2.08;;;;;;;;;;5007132;28;20196;-49
2021/08/11 02:10:43;;;;;;;3.50;1.92;;;;;;;;;;5017634;28;20333;-48
2021/08/11 02:13:10;;;;;;;2.47;2.28;;;;;;;;;;5032540;28;20203;-48
2021/08/11 02:15:36;;;;;;;3.42;2.10;;;;;;;;;;5037344;28;20182;-48
2021/08/11 02:18:03;;;;;;;3.05;2.15;;;;;;;;;;5034309;28;20439;-49
2021/08/11 02:20:29;;;;;;;2.67;2.03;;;;;;;;;;5017283;28;20271;-48
2021/08/11 02:22:55;;;;;;;2.35;1.90;;;;;;;;;;5022854;28;20195;-48
2021/08/11 02:25:21;;;;;;;2.42;2.20;;;;;;;;;;5017314;28;20176;-48
2021/08/11 02:27:53;;;;;;;2.55;2.17;;;;;;;;;;5016593;28;20291;-48
2021/08/11 02:30:29;;;;;;;2.75;2.30;;;;;;;;;;5017658;28;20215;-48
2021/08/11 02:33:30;;;;;;;3.70;2.38;;;;;;;;;;5016315;28;20180;-48
2021/08/11 02:36:03;;;;;;;3.08;2.10;;;;;;;;;;4995275;28;20424;-49
2021/08/11 02:38:34;;;;;;;4.13;2.13;;;;;;;;;;5011276;28;20192;-48
2021/08/11 02:41:07;;;;;;;2.72;2.10;;;;;;;;;;5017278;28;20164;-48
2021/08/11 02:43:36;;;;;;;2.08;1.88;;;;;;;;;;5017105;28;20184;-48
2021/08/11 02:46:06;;;;;;;3.88;2.47;;;;;;;;;;5015912;28;20556;-48
2021/08/11 02:48:34;;;;;;;3.45;2.40;;;;;;;;;;5008422;28;20216;-48
2021/08/11 02:51:00;;;;;;;2.42;1.83;;;;;;;;;;5016705;28;20164;-48
2021/08/11 02:53:28;;;;;;;4.90;2.33;;;;;;;;;;5017387;28;20179;-48
2021/08/11 02:55:54;;;;;;;2.30;2.05;;;;;;;;;;5016945;28;20177;-48
2021/08/11 02:58:20;;;;;;;3.00;2.38;;;;;;;;;;5033718;28;20179;-48
2021/08/11 03:00:48;;;;;;;5.05;2.47;;;;;;;;;;5028759;28;20216;-48
2021/08/11 03:03:14;;;;;;;2.47;2.17;;;;;;;;;;5019326;28;20672;-48
2021/08/11 03:05:40;;;;;;;2.88;2.30;;;;;;;;;;5016283;28;20192;-48
2021/08/11 03:08:07;;;;;;;4.00;2.28;;;;;;;;;;5023726;28;20175;-48
2021/08/11 03:10:33;;;;;;;4.13;2.90;;;;;;;;;;5036496;28;20221;-48
2021/08/11 03:12:59;;;;;;;3.20;2.10;;;;;;;;;;5028911;28;20273;-48
2021/08/11 03:15:27;;;;;;;2.42;2.22;;;;;;;;;;5024217;28;20184;-48
2021/08/11 03:17:53;;;;;;;2.67;2.28;;;;;;;;;;5023006;28;20594;-48
2021/08/11 03:20:19;;;;;;;4.57;2.40;;;;;;;;;;5032606;28;20191;-47
2021/08/11 03:22:46;;;;;;;2.30;2.10;;;;;;;;;;5021045;28;20255;-48
2021/08/11 03:25:12;;;;;;;2.58;2.38;;;;;;;;;;5036274;28;20171;-48
2021/08/11 03:27:38;;;;;;;3.38;2.55;;;;;;;;;;5024458;28;20192;-48
2021/08/11 03:30:04;;;;;;;2.92;2.28;;;;;;;;;;5033428;28;20203;-48
2021/08/11 03:32:30;;;;;;;2.83;2.40;;;;;;;;;;5019466;28;20191;-48
2021/08/11 03:34:56;;;;;;;3.17;2.20;;;;;;;;;;5036026;28;20429;-48
2021/08/11 03:37:22;;;;;;;3.50;2.60;;;;;;;;;;5025356;28;20181;-48
2021/08/11 03:39:48;;;;;;;3.70;2.35;;;;;;;;;;5016205;28;20173;-48
2021/08/11 03:42:14;;;;;;;3.75;2.55;;;;;;;;;;5016168;28;20187;-48
2021/08/11 03:44:40;;;;;;;2.30;2.05;;;;;;;;;;5031586;28;20211;-48
2021/08/11 03:47:06;;;;;;;3.15;2.30;;;;;;;;;;5025021;28;20227;-49
2021/08/11 03:49:33;;;;;;;3.78;2.15;;;;;;;;;;5015565;28;20200;-48
2021/08/11 03:51:59;;;;;;;2.92;2.20;;;;;;;;;;5019047;28;20185;-48
2021/08/11 03:54:25;;;;;;;2.70;2.40;;;;;;;;;;5034494;28;20416;-48
2021/08/11 03:56:51;;;;;;;3.42;2.30;;;;;;;;;;5034456;28;20183;-48
2021/08/11 03:59:17;;;;;;;2.25;2.05;;;;;;;;;;5020749;28;20193;-48
2021/08/11 04:01:43;;;;;;;2.85;2.15;;;;;;;;;;5015574;28;20189;-48
2021/08/11 04:04:09;;;;;;;4.15;2.58;;;;;;;;;;5017291;28;20238;-48
2021/08/11 04:06:35;;;;;;;2.95;2.60;;;;;;;;;;5022645;28;20231;-48
2021/08/11 04:09:01;;;;;;;2.38;2.17;;;;;;;;;;5017878;28;20200;-48
2021/08/11 04:11:27;;;;;;;4.30;2.75;;;;;;;;;;5015524;28;20189;-48
2021/08/11 04:13:53;;;;;;;3.35;2.28;;;;;;;;;;5033732;28;20262;-49
2021/08/11 04:16:19;;;;;;;6.38;2.53;;;;;;;;;;5029632;28;20196;-48
2021/08/11 04:18:45;;;;;;;6.45;2.47;;;;;;;;;;5015085;28;20234;-48
2021/08/11 04:21:11;;;;;;;4.38;2.40;;;;;;;;;;5015123;28;20514;-48
2021/08/11 04:23:37;;;;;;;3.05;2.38;;;;;;;;;;5027167;28;20263;-48
2021/08/11 04:26:03;;;;;;;3.35;2.60;;;;;;;;;;5035085;28;20310;-48
2021/08/11 04:28:29;;;;;;;3.58;2.72;;;;;;;;;;5015924;28;20215;-48
2021/08/11 04:30:55;;;;;;;5.45;2.90;;;;;;;;;;5015216;28;20546;-48
2021/08/11 04:33:21;;;;;;;3.85;2.60;;;;;;;;;;5014433;28;20315;-48
2021/08/11 04:35:47;;;;;;;3.92;2.63;;;;;;;;;;5014881;28;20187;-48
2021/08/11 04:38:13;;;;;;;3.90;2.45;;;;;;;;;;5022793;28;20168;-48
2021/08/11 04:40:39;;;;;;;4.10;2.28;;;;;;;;;;5034882;28;20179;-48
2021/08/11 04:43:06;;;;;;;3.33;2.42;;;;;;;;;;5031945;28;20457;-48
2021/08/11 04:45:32;;;;;;;2.92;2.40;;;;;;;;;;5034828;28;20542;-48
2021/08/11 04:47:58;;;;;;;4.57;2.40;;;;;;;;;;5017800;28;20188;-48
2021/08/11 04:50:24;;;;;;;3.85;2.33;;;;;;;;;;5014954;28;20172;-48
2021/08/11 04:52:50;;;;;;;4.45;2.83;;;;;;;;;;5020309;28;20527;-48
2021/08/11 04:55:16;;;;;;;3.30;2.42;;;;;;;;;;5034284;28;20226;-48
2021/08/11 04:57:42;;;;;;;3.95;2.33;;;;;;;;;;5021781;28;20192;-48
2021/08/11 05:00:08;;;;;;;6.03;2.78;;;;;;;;;;5014831;28;20172;-48
2021/08/11 05:02:34;;;;;;;3.78;2.78;;;;;;;;;;5014859;28;20165;-48
2021/08/11 05:05:00;;;;;;;4.82;2.78;;;;;;;;;;5014667;28;20181;-49
2021/08/11 05:07:27;;;;;;;4.30;2.75;;;;;;;;;;5016264;28;20195;-48
2021/08/11 05:09:53;;;;;;;4.43;2.65;;;;;;;;;;5034264;28;20207;-48
2021/08/11 05:12:19;;;;;;;3.80;2.40;;;;;;;;;;5024876;28;20565;-48
2021/08/11 05:14:45;;;;;;;4.60;2.72;;;;;;;;;;5014726;28;20219;-48
2021/08/11 05:17:11;;;;;;;4.05;2.65;;;;;;;;;;5014222;28;20184;-48
2021/08/11 05:19:37;;;;;;;5.40;2.35;;;;;;;;;;5014636;28;20176;-47
2021/08/11 05:22:03;;;;;;;4.20;2.65;;;;;;;;;;5014104;28;20191;-48
2021/08/11 05:24:29;;;;;;;4.70;2.40;;;;;;;;;;5033303;28;20180;-48
2021/08/11 05:26:55;;;;;;;3.53;2.58;;;;;;;;;;5028066;28;20552;-48
2021/08/11 05:29:23;;;;;;;3.03;2.40;;;;;;;;;;5014543;28;20211;-48
2021/08/11 05:31:49;;;;;;;2.72;2.17;;;;;;;;;;5014717;28;20439;-48
2021/08/11 05:34:15;;;;;;;2.70;2.30;;;;;;;;;;5014152;28;20183;-48
2021/08/11 05:36:41;;;;;;;2.95;2.60;;;;;;;;;;5014302;28;20250;-48
2021/08/11 05:39:07;;;;;;;5.30;2.60;;;;;;;;;;5029755;28;20183;-49
2021/08/11 05:41:33;;;;;;;7.47;3.70;;;;;;;;;;5031321;28;20173;-48
2021/08/11 05:43:59;;;;;;;8.63;3.63;;;;;;;;;;5034370;28;20424;-48
2021/08/11 05:46:25;;;;;;;7.10;3.45;;;;;;;;;;5034118;28;20220;-48
2021/08/11 05:48:51;;;;;;;7.60;3.80;;;;;;;;;;5024780;28;20230;-48
2021/08/11 05:51:17;;;;;;;11.10;4.10;;;;;;;;;;5014201;28;20184;-48
2021/08/11 05:53:43;;;;;;;8.65;3.25;;;;;;;;;;5026597;28;20183;-48
2021/08/11 05:56:09;;;;;;;7.25;3.38;;;;;;;;;;5033838;28;20168;-48
2021/08/11 05:58:35;;;;;;;5.95;3.42;;;;;;;;;;5014184;28;20199;-48
2021/08/11 06:01:01;;;;;;;5.25;3.42;;;;;;;;;;5014208;28;20173;-48
2021/08/11 06:03:27;;;;;;;3.80;3.00;;;;;;;;;;5013796;28;20221;-48
2021/08/11 06:05:53;;;;;;;7.22;3.08;;;;;;;;;;5014181;28;20185;-49
2021/08/11 06:08:19;;;;;;;5.57;3.58;;;;;;;;;;5024564;28;20279;-48
2021/08/11 06:10:45;;;;;;;7.32;4.43;;;;;;;;;;5037618;28;20271;-48
2021/08/11 06:13:11;;;;;;;5.47;3.50;;;;;;;;;;5021757;28;20599;-48
2021/08/11 06:15:37;;;;;;;7.00;3.30;;;;;;;;;;5017707;28;20169;-48
2021/08/11 06:18:03;;;;;;;4.97;3.67;;;;;;;;;;5016789;28;20550;-48
2021/08/11 06:20:29;;;;;;;7.78;4.03;;;;;;;;;;5017472;28;20181;-48
2021/08/11 06:22:55;;;;;;;5.30;3.28;;;;;;;;;;5023179;28;20243;-48
2021/08/11 06:25:21;;;;;;;5.72;3.72;;;;;;;;;;5036990;28;20173;-48
2021/08/11 06:27:47;;;;;;;4.53;3.60;;;;;;;;;;5024027;28;20417;-48
2021/08/11 06:30:13;;;;;;;8.23;3.95;;;;;;;;;;5016902;28;20478;-48
2021/08/11 06:32:39;;;;;;;4.10;3.70;;;;;;;;;;5016860;28;20183;-48
2021/08/11 06:35:06;;;;;;;5.35;4.00;;;;;;;;;;5017159;28;20255;-48
2021/08/11 06:37:32;;;;;;;5.93;3.33;;;;;;;;;;5019194;28;20555;-48
2021/08/11 06:39:58;;;;;;;6.50;3.65;;;;;;;;;;5036900;28;20183;-48
2021/08/11 06:42:24;;;;;;;4.00;3.38;;;;;;;;;;5034324;28;20582;-48
2021/08/11 06:44:50;;;;;;;4.40;3.28;;;;;;;;;;5028904;28;20184;-48
2021/08/11 06:47:16;;;;;;;3.78;3.05;;;;;;;;;;5015988;28;20446;-49
2021/08/11 06:49:42;;;;;;;5.95;2.92;;;;;;;;;;5016652;28;20212;-48
2021/08/11 06:52:08;;;;;;;2.70;2.45;;;;;;;;;;5016709;28;20452;-50
2021/08/11 06:54:34;;;;;;;4.18;3.13;;;;;;;;;;5036141;28;20180;-48
2021/08/11 06:57:00;;;;;;;4.43;3.10;;;;;;;;;;5030158;28;20173;-48
2021/08/11 06:59:26;;;;;;;3.72;3.17;;;;;;;;;;5016678;28;20176;-48
2021/08/11 07:01:52;;;;;;;5.18;3.03;;;;;;;;;;5016985;28;20450;-48
2021/08/11 07:04:18;;;;;;;4.18;2.80;;;;;;;;;;5016492;28;20227;-48
2021/08/11 07:06:44;;;;;;;4.45;2.90;;;;;;;;;;5016421;28;20560;-48
2021/08/11 07:09:10;;;;;;;3.83;2.75;;;;;;;;;;5031943;28;20287;-48
2021/08/11 07:11:36;;;;;;;3.42;2.92;;;;;;;;;;5033481;28;20231;-48
2021/08/11 07:14:03;;;;;;;4.57;2.90;;;;;;;;;;5016306;28;20218;-48
2021/08/11 07:16:29;;;;;;;3.05;2.63;;;;;;;;;;5016392;28;20556;-48
2021/08/11 07:18:55;;;;;;;3.70;2.75;;;;;;;;;;5015704;28;20227;-48
2021/08/11 07:21:21;;;;;;;2.80;2.60;;;;;;;;;;5016085;28;20177;-48
2021/08/11 07:23:47;;;;;;;2.90;2.60;;;;;;;;;;5028973;28;20207;-48
2021/08/11 07:26:13;;;;;;;4.68;2.58;;;;;;;;;;5036195;28;20229;-48
2021/08/11 07:28:39;;;;;;;5.63;2.60;;;;;;;;;;5015908;28;20192;-48
2021/08/11 07:31:05;;;;;;;3.60;2.53;;;;;;;;;;5016257;28;20191;-48
2021/08/11 07:33:31;;;;;;;3.28;2.80;;;;;;;;;;5015947;28;20180;-48
2021/08/11 07:35:57;;;;;;;3.28;2.80;;;;;;;;;;5015653;28;20191;-48
2021/08/11 07:38:23;;;;;;;3.55;2.90;;;;;;;;;;5025282;28;20179;-48
2021/08/11 07:40:48;;;;;;;2.60;2.40;;;;;;;;;;5035906;28;20172;-48
2021/08/11 07:43:14;;;;;;;3.47;2.78;;;;;;;;;;5033188;28;20176;-48
2021/08/11 07:45:41;;;;;;;2.95;2.65;;;;;;;;;;5035954;28;20540;-48
2021/08/11 07:48:07;;;;;;;3.00;2.38;;;;;;;;;;5034982;28;20658;-49
2021/08/11 07:50:34;;;;;;;3.25;2.60;;;;;;;;;;5015814;28;20189;-48
2021/08/11 07:53:00;;;;;;;2.97;2.45;;;;;;;;;;5022093;28;20168;-48
2021/08/11 07:55:26;;;;;;;3.08;2.60;;;;;;;;;;5035542;28;20164;-48
2021/08/11 07:57:53;;;;;;;4.75;2.75;;;;;;;;;;5022031;28;20184;-48
2021/08/11 08:00:21;;;;;;;2.90;2.60;;;;;;;;;;5015422;28;20173;-48
2021/08/11 08:02:47;;;;;;;4.30;2.58;;;;;;;;;;4996028;28;20177;-49
2021/08/11 08:05:14;;;;;;;2.80;2.50;;;;;;;;;;4995785;28;20537;-48
2021/08/11 08:07:40;;;;;;;3.13;2.78;;;;;;;;;;5018325;28;20171;-48
2021/08/11 08:10:06;;;;;;;3.33;2.42;;;;;;;;;;5035193;28;20199;-48
2021/08/11 08:12:32;;;;;;;2.55;1.85;;;;;;;;;;5024243;28;20192;-48
2021/08/11 08:14:58;;;;;;;2.80;2.50;;;;;;;;;;5015489;28;20223;-49
2021/08/11 08:17:24;;;;;;;3.35;2.70;;;;;;;;;;5014831;28;20504;-48
2021/08/11 08:19:50;;;;;;;3.60;2.67;;;;;;;;;;5015097;28;20179;-48
2021/08/11 08:22:17;;;;;;;3.03;2.72;;;;;;;;;;5014906;28;20211;-48
2021/08/11 08:24:44;;;;;;;3.00;2.50;;;;;;;;;;5034551;28;20168;-48
2021/08/11 08:27:09;;;;;;;2.95;2.45;;;;;;;;;;5026833;28;20172;-48
2021/08/11 08:29:36;;;;;;;4.05;3.00;;;;;;;;;;5014924;28;20208;-48
2021/08/11 08:32:02;;;;;;;3.13;2.60;;;;;;;;;;5014620;28;20509;-48
2021/08/11 08:34:28;;;;;;;2.67;2.40;;;;;;;;;;5014860;28;20176;-49
2021/08/11 08:36:54;;;;;;;3.90;2.60;;;;;;;;;;5014245;28;20187;-48
2021/08/11 08:39:20;;;;;;;2.75;2.53;;;;;;;;;;5032453;28;20435;-49
2021/08/11 08:41:46;;;;;;;3.47;2.25;;;;;;;;;;5032028;28;20172;-48
2021/08/11 08:44:14;;;;;;;3.28;2.78;;;;;;;;;;5028051;28;20515;-48
2021/08/11 08:46:42;;;;;;;3.20;2.47;;;;;;;;;;5014755;28;20212;-48
2021/08/11 08:49:09;;;;;;;4.93;2.70;;;;;;;;;;5013804;28;20200;-48
2021/08/11 08:51:46;;;;;;;2.83;2.45;;;;;;;;;;5014186;28;20548;-48
2021/08/11 08:54:12;;;;;;;3.75;2.83;;;;;;;;;;5030988;28;20176;-48
2021/08/11 08:56:39;;;;;;;3.28;2.60;;;;;;;;;;5031340;28;20180;-48
2021/08/11 08:59:06;;;;;;;4.18;2.67;;;;;;;;;;5013669;28;20191;-48
2021/08/11 09:01:32;;;;;;;3.35;2.63;;;;;;;;;;5014619;28;20172;-48
2021/08/11 09:03:57;;;;;;;3.13;2.65;;;;;;;;;;5014566;28;20582;-48
2021/08/11 09:06:23;;;;;;;3.40;2.50;;;;;;;;;;5014213;28;20195;-48
2021/08/11 09:09:16;;;;;;;3.80;2.67;;;;;;;;;;5010099;28;20234;-48
2021/08/11 09:11:43;;;;;;;3.72;2.40;;;;;;;;;;5026299;28;20176;-48
2021/08/11 09:14:24;;;;;;;2.55;2.30;;;;;;;;;;5014066;28;20180;-48
2021/08/11 09:16:52;;;;;;;2.40;2.20;;;;;;;;;;5014744;28;20180;-48
2021/08/11 09:19:18;;;;;;;4.03;2.30;;;;;;;;;;5013618;28;20275;-48
2021/08/11 09:21:58;;;;;;;2.83;2.38;;;;;;;;;;5014172;28;20211;-48
2021/08/11 09:24:25;;;;;;;3.50;2.33;;;;;;;;;;5031923;28;20191;-48
2021/08/11 09:26:51;;;;;;;4.10;2.53;;;;;;;;;;5029607;28;20176;-48
2021/08/11 09:29:18;;;;;;;3.85;2.30;;;;;;;;;;5013518;28;20212;-48
2021/08/11 09:31:44;;;;;;;2.88;2.22;;;;;;;;;;5013955;28;20189;-48
2021/08/11 09:34:12;;;;;;;2.53;2.10;;;;;;;;;;5014212;28;20231;-48
2021/08/11 09:36:42;;;;;;;2.42;2.22;;;;;;;;;;5013968;28;20176;-48
2021/08/11 09:39:09;;;;;;;2.65;2.25;;;;;;;;;;5029070;28;20190;-50
2021/08/11 09:41:35;;;;;;;3.33;2.30;;;;;;;;;;5031870;28;20223;-48
2021/08/11 09:44:12;;;;;;;2.45;2.17;;;;;;;;;;5038086;28;20222;-48
2021/08/11 09:46:39;;;;;;;3.13;1.95;;;;;;;;;;5032146;28;20428;-48
2021/08/11 09:49:16;;;;;;;3.33;2.15;;;;;;;;;;5017747;28;20196;-48
2021/08/11 09:51:55;;;;;;;2.72;2.47;;;;;;;;;;5017782;28;20203;-48
2021/08/11 09:54:22;;;;;;;2.80;2.25;;;;;;;;;;5035396;28;20198;-48
2021/08/11 09:56:48;;;;;;;3.25;2.35;;;;;;;;;;5033795;28;20223;-48
2021/08/11 09:59:14;;;;;;;2.72;2.50;;;;;;;;;;5017428;28;20209;-48
2021/08/11 10:01:40;;;;;;;2.63;2.40;;;;;;;;;;5017487;28;20215;-48
2021/08/11 10:04:07;;;;;;;2.70;1.83;;;;;;;;;;5017579;28;20211;-48
2021/08/11 10:06:40;;;;;;;2.47;2.17;;;;;;;;;;5017506;28;20427;-48
2021/08/11 10:09:14;;;;;;;3.22;2.47;;;;;;;;;;5032570;28;20200;-48
2021/08/11 10:11:43;;;;;;;2.83;2.40;;;;;;;;;;5034169;28;20168;-48
2021/08/11 10:14:09;;;;;;;2.40;2.20;;;;;;;;;;5017752;28;20260;-48
2021/08/11 10:16:36;;;;;;;3.75;2.70;;;;;;;;;;5017436;28;20250;-48
2021/08/11 10:19:06;;;;;;;2.88;2.20;;;;;;;;;;5017221;28;20179;-48
2021/08/11 10:21:38;;;;;;;2.70;2.30;;;;;;;;;;5017235;28;20232;-48
2021/08/11 10:24:05;;;;;;;2.85;2.22;;;;;;;;;;5032581;28;20188;-49
2021/08/11 10:26:31;;;;;;;2.42;2.22;;;;;;;;;;5035354;28;20191;-48
2021/08/11 10:28:58;;;;;;;2.65;2.30;;;;;;;;;;5016105;28;20283;-48
2021/08/11 10:31:24;;;;;;;2.75;2.20;;;;;;;;;;5002560;28;20184;-48
2021/08/11 10:33:50;;;;;;;2.90;2.40;;;;;;;;;;5017468;28;20172;-49
2021/08/11 10:36:17;;;;;;;2.35;2.15;;;;;;;;;;5016708;28;20188;-48
2021/08/11 10:38:43;;;;;;;2.65;2.22;;;;;;;;;;5028710;28;20195;-48
2021/08/11 10:41:10;;;;;;;4.63;2.40;;;;;;;;;;5035629;28;20171;-49
2021/08/11 10:43:36;;;;;;;5.28;2.05;;;;;;;;;;5035632;28;20514;-48
2021/08/11 10:46:05;;;;;;;2.88;2.30;;;;;;;;;;5028574;28;20216;-49
2021/08/11 10:48:31;;;;;;;4.70;2.53;;;;;;;;;;5016184;28;20291;-49
2021/08/11 10:50:57;;;;;;;4.32;2.80;;;;;;;;;;5016718;28;20180;-49
2021/08/11 10:53:24;;;;;;;3.22;2.85;;;;;;;;;;5025580;28;20176;-48
2021/08/11 10:55:50;;;;;;;3.95;2.80;;;;;;;;;;5019955;28;20181;-48
2021/08/11 10:58:35;;;;;;;7.38;3.00;;;;;;;;;;5019016;28;20488;-48
2021/08/11 11:01:01;;;;;;;9.25;2.78;;;;;;;;;;5036509;28;20289;-49
2021/08/11 11:03:45;;;;;;;3.58;2.50;;;;;;;;;;5023542;28;20191;-49
2021/08/11 11:06:11;;;;;;;2.83;2.60;;;;;;;;;;5016180;28;20173;-48
2021/08/11 11:08:37;;;;;;;2.67;2.28;;;;;;;;;;5026773;28;20208;-48
2021/08/11 11:11:30;;;;;;;4.15;2.70;;;;;;;;;;5036325;28;20172;-48
2021/08/11 11:13:56;;;;;;;3.05;2.45;;;;;;;;;;4993608;28;20276;-49
2021/08/11 11:16:22;;;;;;;3.95;2.78;;;;;;;;;;4996952;28;20257;-49
2021/08/11 11:19:07;;;;;;;4.03;2.97;;;;;;;;;;5004479;28;20238;-48
2021/08/11 11:21:34;;;;;;;3.03;2.72;;;;;;;;;;5015414;28;20503;-48
2021/08/11 11:24:00;;;;;;;5.25;2.47;;;;;;;;;;5030554;28;20567;-49
2021/08/11 11:26:33;;;;;;;3.35;2.58;;;;;;;;;;5035041;28;20222;-49
2021/08/11 11:29:06;;;;;;;3.38;2.50;;;;;;;;;;5015640;28;20207;-49
2021/08/11 11:31:33;;;;;;;4.35;2.65;;;;;;;;;;5018222;28;20187;-49
2021/08/11 11:34:21;;;;;;;3.47;2.63;;;;;;;;;;5015584;28;20180;-49
2021/08/11 11:37:06;;;;;;;3.33;2.60;;;;;;;;;;5015870;28;20421;-48
2021/08/11 11:39:33;;;;;;;3.47;2.63;;;;;;;;;;5034563;28;20422;-49
2021/08/11 11:42:09;;;;;;;3.10;2.40;;;;;;;;;;5032451;28;20214;-48
2021/08/11 11:44:47;;;;;;;3.35;2.88;;;;;;;;;;5035824;28;20576;-48
2021/08/11 11:47:15;;;;;;;3.72;3.08;;;;;;;;;;5025544;28;20709;-49
2021/08/11 11:49:41;;;;;;;3.00;2.67;;;;;;;;;;5015184;28;20228;-50
2021/08/11 11:52:33;;;;;;;2.85;2.40;;;;;;;;;;5015678;28;20219;-48
2021/08/11 11:54:59;;;;;;;2.80;2.47;;;;;;;;;;4995099;28;20505;-49
2021/08/11 11:57:29;;;;;;;2.75;2.50;;;;;;;;;;5013768;28;20172;-49
2021/08/11 11:59:55;;;;;;;3.65;2.72;;;;;;;;;;5034408;28;20172;-50
2021/08/11 12:02:22;;;;;;;2.90;2.30;;;;;;;;;;5015517;28;20180;-49
2021/08/11 12:04:59;;;;;;;3.13;2.75;;;;;;;;;;5014762;28;20207;-50
2021/08/11 12:07:29;;;;;;;3.17;2.40;;;;;;;;;;5016352;28;20591;-49
2021/08/11 12:09:56;;;;;;;3.17;2.63;;;;;;;;;;5035210;28;20207;-49
2021/08/11 12:12:22;;;;;;;2.58;2.30;;;;;;;;;;5026658;28;20200;-49
2021/08/11 12:14:48;;;;;;;4.10;2.33;;;;;;;;;;5015463;28;20212;-50
2021/08/11 12:17:30;;;;;;;2.42;2.20;;;;;;;;;;5014650;28;20553;-49
2021/08/11 12:19:56;;;;;;;2.85;2.47;;;;;;;;;;5015103;28;20188;-49
2021/08/11 12:22:32;;;;;;;3.00;2.70;;;;;;;;;;5015780;28;20207;-49
2021/08/11 12:24:58;;;;;;;3.08;2.78;;;;;;;;;;5034861;28;20175;-49
2021/08/11 12:27:24;;;;;;;3.97;2.70;;;;;;;;;;5025361;28;20204;-49
2021/08/11 12:30:10;;;;;;;3.05;2.67;;;;;;;;;;5014651;28;20578;-49
2021/08/11 12:32:36;;;;;;;3.10;2.80;;;;;;;;;;5005908;28;20187;-49
2021/08/11 12:35:03;;;;;;;3.30;2.70;;;;;;;;;;5015066;28;20165;-50
2021/08/11 12:37:29;;;;;;;2.95;2.55;;;;;;;;;;5016047;28;20544;-49
2021/08/11 12:39:55;;;;;;;3.60;2.58;;;;;;;;;;5034671;28;20318;-49
2021/08/11 12:42:21;;;;;;;3.08;2.78;;;;;;;;;;5014015;28;20263;-49
2021/08/11 12:44:53;;;;;;;3.13;2.58;;;;;;;;;;5025171;28;20199;-49
2021/08/11 12:47:25;;;;;;;3.75;2.90;;;;;;;;;;5022726;28;20474;-49
2021/08/11 12:49:51;;;;;;;3.13;2.60;;;;;;;;;;5023237;28;20203;-49
2021/08/11 12:52:18;;;;;;;4.50;2.47;;;;;;;;;;5017152;28;20187;-50
2021/08/11 12:54:55;;;;;;;2.85;2.65;;;;;;;;;;5014657;28;20164;-50
2021/08/11 12:57:21;;;;;;;2.60;2.33;;;;;;;;;;5018082;28;20177;-49
2021/08/11 12:59:51;;;;;;;2.83;2.33;;;;;;;;;;5014680;28;20668;-50
2021/08/11 13:02:26;;;;;;;3.28;2.47;;;;;;;;;;5014561;28;20183;-50
2021/08/11 13:04:52;;;;;;;4.20;2.72;;;;;;;;;;5014783;28;20168;-49
2021/08/11 13:07:19;;;;;;;3.33;2.25;;;;;;;;;;5016676;28;20219;-50
2021/08/11 13:09:45;;;;;;;5.20;2.50;;;;;;;;;;5028603;28;20274;-49
2021/08/11 13:12:12;;;;;;;10.38;3.88;;;;;;;;;;5026272;28;20177;-49
2021/08/11 13:14:46;;;;;;;6.63;3.22;;;;;;;;;;5025229;28;20230;-50
2021/08/11 13:17:13;;;;;;;3.15;2.67;;;;;;;;;;5022324;28;20182;-49
2021/08/11 13:19:39;;;;;;;6.88;2.92;;;;;;;;;;5016844;28;20192;-49
2021/08/11 13:22:05;;;;;;;3.22;2.50;;;;;;;;;;5019039;28;20330;-49
2021/08/11 13:24:31;;;;;;;3.15;2.85;;;;;;;;;;5020899;28;20168;-49
2021/08/11 13:26:58;;;;;;;5.10;2.85;;;;;;;;;;5020552;28;20164;-50
2021/08/11 13:29:29;;;;;;;4.63;2.92;;;;;;;;;;5020705;28;20207;-50
2021/08/11 13:31:56;;;;;;;4.97;3.10;;;;;;;;;;5020751;28;20196;-50
2021/08/11 13:34:22;;;;;;;4.35;2.80;;;;;;;;;;5020559;28;20180;-49
2021/08/11 13:36:48;;;;;;;3.30;2.88;;;;;;;;;;5020592;28;20165;-49
2021/08/11 13:39:14;;;;;;;3.03;2.72;;;;;;;;;;5020429;28;20177;-49
2021/08/11 13:44:44;;;;;;;4.18;3.10;;;;;;;;;;5021032;28;20191;-50
2021/08/11 13:47:10;;;;;;;3.40;2.72;;;;;;;;;;5020105;28;20196;-49
2021/08/11 13:49:36;;;;;;;3.28;2.70;;;;;;;;;;5020369;28;20196;-49
2021/08/11 13:52:03;;;;;;;5.15;2.90;;;;;;;;;;5020382;28;20255;-50
2021/08/11 13:54:29;;;;;;;5.75;3.03;;;;;;;;;;5020364;28;20179;-49
2021/08/11 13:56:55;;;;;;;5.22;2.80;;;;;;;;;;5020117;28;20176;-50
2021/08/11 13:59:21;;;;;;;3.28;2.90;;;;;;;;;;5020022;28;20168;-50
2021/08/11 14:01:48;;;;;;;3.90;2.85;;;;;;;;;;5020267;28;20164;-50
2021/08/11 14:04:14;;;;;;;3.55;2.92;;;;;;;;;;5020124;28;20247;-49
2021/08/11 14:06:40;;;;;;;4.85;3.00;;;;;;;;;;5020071;28;20183;-49
2021/08/11 14:09:06;;;;;;;3.80;2.80;;;;;;;;;;5019754;28;20204;-49
2021/08/11 14:11:33;;;;;;;4.00;3.05;;;;;;;;;;5019957;28;20172;-49
2021/08/11 14:13:59;;;;;;;4.10;3.00;;;;;;;;;;5019914;28;20172;-49
2021/08/11 14:19:29;;;;;;;3.40;2.97;;;;;;;;;;5020122;28;20425;-50
2021/08/11 14:21:55;;;;;;;4.53;3.08;;;;;;;;;;5018370;28;20598;-49
2021/08/11 14:24:21;;;;;;;5.82;3.40;;;;;;;;;;5016804;28;20179;-49
2021/08/11 14:26:47;;;;;;;4.38;3.25;;;;;;;;;;5033308;28;20183;-51
2021/08/11 14:29:13;;;;;;;3.13;2.83;;;;;;;;;;5015572;28;20208;-49
2021/08/11 14:31:40;;;;;;;3.20;2.85;;;;;;;;;;5017163;28;20615;-49
2021/08/11 14:34:06;;;;;;;4.10;3.00;;;;;;;;;;5017043;28;20176;-50
2021/08/11 14:36:32;;;;;;;3.50;3.20;;;;;;;;;;5016567;28;20708;-49
2021/08/11 14:38:58;;;;;;;2.80;2.60;;;;;;;;;;5030213;28;20192;-49
2021/08/11 14:41:24;;;;;;;3.90;3.38;;;;;;;;;;5033510;28;20263;-50
2021/08/11 14:43:50;;;;;;;3.33;3.00;;;;;;;;;;5036934;28;20524;-49
2021/08/11 14:46:16;;;;;;;3.40;3.10;;;;;;;;;;5019920;28;20192;-50
2021/08/11 14:48:42;;;;;;;4.35;2.97;;;;;;;;;;5016312;28;20200;-49
2021/08/11 14:51:09;;;;;;;3.65;3.00;;;;;;;;;;5016500;28;20176;-49